Time;durP1;ratioP1;P1;durP2;ratioP2;P2;SDS_P1;SDS_P2;PMS_P1;PMS_P2;Temp;Humidity;BMP_temperature;BMP_pressure;BME280_temperature;BME280_humidity;BME280_pressure;Samples;Min_cycle;Max_cycle;Signal;HPM_P1;HPM_P2
2022/08/19 04:02:16;;;;;;;18.67;14.97;;;19.10;99.90;;;;;;5055537;23;20516;-71
2022/08/19 04:04:44;;;;;;;17.37;14.47;;;19.10;99.90;;;;;;4893076;29;20477;-71
2022/08/19 04:07:15;;;;;;;14.43;13.03;;;19.10;99.90;;;;;;4892822;29;20472;-71
2022/08/19 04:09:41;;;;;;;15.57;13.40;;;19.10;99.90;;;;;;4889961;29;20474;-71
2022/08/19 04:12:09;;;;;;;17.17;13.10;;;19.10;99.90;;;;;;4891558;29;20877;-71
2022/08/19 04:14:36;;;;;;;15.37;12.67;;;19.10;99.90;;;;;;4894477;29;20471;-71
2022/08/19 04:17:04;;;;;;;15.17;12.80;;;19.10;99.90;;;;;;4893755;29;20832;-71
2022/08/19 04:19:33;;;;;;;16.57;13.20;;;19.10;99.90;;;;;;4892060;29;20474;-72
2022/08/19 04:22:00;;;;;;;15.57;11.90;;;19.00;99.90;;;;;;4892649;29;20493;-72
2022/08/19 04:24:27;;;;;;;14.27;12.80;;;19.00;99.90;;;;;;4894420;29;20474;-72
2022/08/19 04:26:55;;;;;;;15.87;11.47;;;19.00;99.90;;;;;;4896417;29;20470;-71
2022/08/19 04:29:26;;;;;;;14.30;12.80;;;19.00;99.90;;;;;;4897216;29;20880;-71
2022/08/19 04:31:55;;;;;;;14.23;12.57;;;19.00;99.90;;;;;;4898580;29;20498;-71
2022/08/19 04:34:24;;;;;;;14.57;11.80;;;19.00;99.90;;;;;;4897851;29;20474;-72
2022/08/19 04:36:54;;;;;;;12.37;11.17;;;19.10;99.90;;;;;;4896978;29;20843;-71
2022/08/19 04:39:22;;;;;;;14.13;11.90;;;19.00;99.90;;;;;;4897344;29;20480;-72
2022/08/19 04:44:35;;;;;;;13.93;11.60;;;19.10;99.90;;;;;;4897731;29;20924;-72
2022/08/19 04:47:05;;;;;;;13.17;11.43;;;19.10;99.90;;;;;;4897142;29;20778;-72
2022/08/19 04:49:32;;;;;;;16.80;12.70;;;19.10;99.90;;;;;;4897581;29;20478;-72
2022/08/19 04:52:00;;;;;;;13.20;11.80;;;19.10;99.90;;;;;;4903465;29;20502;-72
2022/08/19 04:54:28;;;;;;;17.17;12.43;;;19.10;99.90;;;;;;4902676;29;20478;-72
2022/08/19 04:56:54;;;;;;;14.53;12.57;;;19.10;99.90;;;;;;4901086;29;20954;-71
2022/08/19 04:59:21;;;;;;;14.23;12.80;;;19.10;99.90;;;;;;4899711;29;20475;-72
2022/08/19 05:01:49;;;;;;;15.73;12.43;;;19.10;99.90;;;;;;4898562;29;20492;-72
2022/08/19 05:04:18;;;;;;;13.97;12.47;;;19.10;99.90;;;;;;4896268;29;20506;-71
2022/08/19 05:06:46;;;;;;;18.77;13.23;;;19.00;99.90;;;;;;4896369;29;20475;-73
2022/08/19 05:09:16;;;;;;;19.00;12.83;;;19.00;99.90;;;;;;4896750;29;20475;-72
2022/08/19 05:11:43;;;;;;;19.30;13.67;;;19.00;99.90;;;;;;4897486;29;20487;-72
2022/08/19 05:14:12;;;;;;;15.23;12.13;;;19.00;99.90;;;;;;4901967;29;20516;-73
2022/08/19 05:16:39;;;;;;;16.97;14.03;;;19.00;99.90;;;;;;4902887;29;20549;-72
2022/08/19 05:24:37;;;;;;;17.40;14.03;;;19.10;99.90;;;;;;4899463;29;20485;-72
2022/08/19 05:27:05;;;;;;;17.00;13.30;;;19.00;99.90;;;;;;4900657;29;20480;-72
2022/08/19 05:29:33;;;;;;;14.17;12.77;;;19.00;99.90;;;;;;4901613;29;20474;-73
2022/08/19 05:32:01;;;;;;;18.27;11.90;;;19.10;99.90;;;;;;4900646;29;21006;-72
2022/08/19 05:34:28;;;;;;;21.83;14.23;;;19.10;99.90;;;;;;4895970;29;20475;-72
2022/08/19 05:36:57;;;;;;;16.27;12.40;;;19.10;99.90;;;;;;4894157;29;20974;-72
2022/08/19 05:39:27;;;;;;;19.03;13.60;;;19.10;99.90;;;;;;4895381;29;20569;-72
2022/08/19 05:41:58;;;;;;;14.53;12.87;;;19.10;99.90;;;;;;4891763;29;20490;-72
2022/08/19 05:44:25;;;;;;;18.20;13.50;;;19.10;99.90;;;;;;4895240;29;20479;-72
2022/08/19 05:46:53;;;;;;;20.20;14.03;;;19.10;99.90;;;;;;4896518;29;20474;-72
2022/08/19 05:49:23;;;;;;;17.60;12.83;;;19.10;99.90;;;;;;4899395;29;20481;-72
2022/08/19 05:51:50;;;;;;;17.00;12.67;;;19.10;99.90;;;;;;4896452;29;20494;-72
2022/08/19 05:54:18;;;;;;;17.73;14.23;;;19.10;99.90;;;;;;4888801;29;20490;-73
2022/08/19 05:56:47;;;;;;;18.83;14.20;;;19.20;99.90;;;;;;4897848;29;20478;-72
2022/08/19 05:59:17;;;;;;;16.83;15.03;;;19.20;99.90;;;;;;4893242;29;20510;-72
2022/08/19 06:01:45;;;;;;;22.73;15.90;;;19.30;99.90;;;;;;4889732;29;20502;-71
2022/08/19 06:04:13;;;;;;;17.07;14.27;;;19.30;99.90;;;;;;4888448;29;20482;-71
2022/08/19 06:06:40;;;;;;;18.43;13.73;;;19.30;99.90;;;;;;4897274;29;20506;-72
2022/08/19 06:09:10;;;;;;;18.37;14.70;;;19.30;99.90;;;;;;4893351;29;20474;-72
2022/08/19 06:11:40;;;;;;;20.07;14.90;;;19.30;99.90;;;;;;4894642;29;20982;-72
2022/08/19 06:14:09;;;;;;;17.77;15.00;;;19.30;99.90;;;;;;4895081;29;20490;-73
2022/08/19 06:16:38;;;;;;;22.30;16.70;;;19.40;99.90;;;;;;4896197;29;20489;-72
2022/08/19 06:19:07;;;;;;;18.00;15.13;;;19.30;99.90;;;;;;4898040;29;20522;-72
2022/08/19 06:21:36;;;;;;;20.77;16.80;;;19.40;99.90;;;;;;4908999;29;20494;-73
2022/08/19 06:24:04;;;;;;;22.37;17.20;;;19.40;99.90;;;;;;4905363;29;20471;-72
2022/08/19 06:26:31;;;;;;;28.90;20.27;;;19.50;99.90;;;;;;4905785;29;20484;-73
2022/08/19 06:28:58;;;;;;;29.97;20.77;;;19.40;99.90;;;;;;4893479;29;20475;-74
2022/08/19 06:31:28;;;;;;;30.60;21.00;;;19.50;99.90;;;;;;4896968;29;20528;-72
2022/08/19 06:33:56;;;;;;;30.80;21.13;;;19.50;99.90;;;;;;4897936;29;21059;-73
2022/08/19 06:36:31;;;;;;;36.20;23.63;;;19.50;99.90;;;;;;4893352;29;20478;-72
2022/08/19 06:38:58;;;;;;;33.27;23.03;;;19.50;99.90;;;;;;4891472;29;20479;-73
2022/08/19 06:41:25;;;;;;;44.97;27.97;;;19.60;99.90;;;;;;4894988;29;20487;-73
2022/08/19 06:43:52;;;;;;;42.50;27.40;;;19.50;99.90;;;;;;4895606;29;21014;-73
2022/08/19 06:46:19;;;;;;;40.30;25.87;;;19.40;99.90;;;;;;4896043;29;20848;-74
2022/08/19 06:48:47;;;;;;;40.13;28.07;;;19.40;99.90;;;;;;4894893;29;20538;-73
2022/08/19 06:51:18;;;;;;;44.17;27.83;;;19.40;99.90;;;;;;4894113;29;20505;-72
2022/08/19 06:53:46;;;;;;;40.63;25.23;;;19.40;99.90;;;;;;4893106;29;20489;-73
2022/08/19 06:56:13;;;;;;;37.13;25.47;;;19.40;99.90;;;;;;4894790;29;20468;-73
2022/08/19 06:58:40;;;;;;;38.00;24.67;;;19.40;99.90;;;;;;4888447;29;20485;-73
2022/08/19 07:01:08;;;;;;;36.30;23.73;;;19.30;99.90;;;;;;4895761;29;20516;-74
2022/08/19 07:03:36;;;;;;;41.27;26.90;;;19.40;99.90;;;;;;4895589;29;20483;-73
2022/08/19 07:06:05;;;;;;;38.47;24.53;;;19.30;99.90;;;;;;4893107;29;20972;-73
2022/08/19 07:08:33;;;;;;;38.80;25.40;;;19.30;99.90;;;;;;4892181;29;20481;-74
2022/08/19 07:11:00;;;;;;;34.87;23.83;;;19.20;99.90;;;;;;4892535;29;20501;-74
2022/08/19 07:13:27;;;;;;;33.43;23.80;;;19.20;99.90;;;;;;4895713;29;20491;-74
2022/08/19 07:15:54;;;;;;;40.00;25.90;;;19.20;99.90;;;;;;4893962;29;20478;-74
2022/08/19 07:18:22;;;;;;;38.50;24.60;;;19.20;99.90;;;;;;4895298;29;20483;-73
2022/08/19 07:20:49;;;;;;;36.07;24.53;;;19.20;99.90;;;;;;4888902;29;20510;-74
2022/08/19 07:23:15;;;;;;;36.87;25.30;;;19.20;99.90;;;;;;4892179;29;20466;-73
2022/08/19 07:25:43;;;;;;;34.70;26.00;;;19.20;99.90;;;;;;4885022;29;20575;-74
2022/08/19 07:28:10;;;;;;;41.07;26.23;;;19.20;99.90;;;;;;4892197;29;20479;-74
2022/08/19 07:30:38;;;;;;;40.73;25.43;;;19.20;99.90;;;;;;4892240;29;20493;-73
2022/08/19 07:33:05;;;;;;;44.53;26.63;;;19.20;99.90;;;;;;4889453;29;20490;-74
2022/08/19 07:35:33;;;;;;;45.30;27.97;;;19.30;99.90;;;;;;4893428;29;20538;-74
2022/08/19 07:38:02;;;;;;;43.93;27.60;;;19.30;99.90;;;;;;4894043;29;20885;-74
2022/08/19 07:40:29;;;;;;;41.60;26.80;;;19.30;99.90;;;;;;4892992;29;20477;-74
2022/08/19 07:42:58;;;;;;;44.27;29.10;;;19.40;99.90;;;;;;4894602;29;20475;-73
2022/08/19 07:45:27;;;;;;;45.57;27.63;;;19.30;99.90;;;;;;4894637;29;20814;-74
2022/08/19 07:47:53;;;;;;;41.87;28.23;;;19.40;99.90;;;;;;4892551;29;20486;-73
2022/08/19 07:50:21;;;;;;;41.83;28.57;;;19.40;99.90;;;;;;4893446;29;20531;-74
2022/08/19 07:52:49;;;;;;;41.00;28.80;;;19.40;99.90;;;;;;4894185;29;20502;-74
2022/08/19 07:55:18;;;;;;;45.93;28.77;;;19.40;99.90;;;;;;4893774;29;20478;-73
2022/08/19 07:57:45;;;;;;;53.10;28.47;;;19.40;99.90;;;;;;4892954;29;20486;-73
2022/08/19 08:00:14;;;;;;;47.77;28.90;;;19.40;99.90;;;;;;4891104;29;20483;-73
2022/08/19 08:02:42;;;;;;;48.10;29.70;;;19.40;99.90;;;;;;4895167;29;20561;-74
2022/08/19 08:10:37;;;;;;;47.50;30.50;;;19.30;99.90;;;;;;4900918;29;20475;-74
2022/08/19 08:13:05;;;;;;;50.17;30.97;;;19.30;99.90;;;;;;4897130;29;20502;-74
2022/08/19 08:15:33;;;;;;;51.83;29.30;;;19.30;99.90;;;;;;4898030;29;20483;-74
2022/08/19 08:18:00;;;;;;;49.63;30.77;;;19.30;99.90;;;;;;4896343;29;20556;-77
2022/08/19 08:20:27;;;;;;;53.60;33.93;;;19.30;99.90;;;;;;4899559;29;20898;-74
2022/08/19 08:25:38;;;;;;;57.40;32.90;;;19.40;99.90;;;;;;4895662;29;20502;-75
2022/08/19 08:28:07;;;;;;;50.50;31.10;;;19.40;99.90;;;;;;4895487;29;20848;-74
2022/08/19 08:30:36;;;;;;;60.63;32.80;;;19.40;99.90;;;;;;4895892;29;20495;-73
2022/08/19 08:33:04;;;;;;;50.03;30.93;;;19.40;99.90;;;;;;4895021;29;20581;-75
2022/08/19 08:35:30;;;;;;;51.77;29.83;;;19.40;99.90;;;;;;4894986;29;20483;-73
2022/08/19 08:37:58;;;;;;;52.20;30.93;;;19.40;99.90;;;;;;4896812;29;20477;-71
2022/08/19 08:40:45;;;;;;;51.63;30.27;;;19.40;99.90;;;;;;4898178;29;20532;-71
2022/08/19 08:43:21;;;;;;;62.20;32.07;;;19.40;99.90;;;;;;4895796;29;20474;-72
2022/08/19 08:45:53;;;;;;;44.60;28.90;;;19.30;99.90;;;;;;4894539;29;20485;-72
2022/08/19 08:48:25;;;;;;;51.87;31.77;;;19.40;99.90;;;;;;4896769;29;20601;-72
2022/08/19 08:50:54;;;;;;;52.10;29.70;;;19.40;99.90;;;;;;4899130;29;21027;-72
2022/08/19 08:53:22;;;;;;;52.17;29.10;;;19.30;99.90;;;;;;4907628;29;20520;-72
2022/08/19 08:55:49;;;;;;;43.90;28.50;;;19.30;99.90;;;;;;4905481;29;20479;-73
2022/08/19 08:58:20;;;;;;;50.47;29.87;;;19.30;99.90;;;;;;4895188;29;20498;-72
2022/08/19 09:00:49;;;;;;;44.23;28.43;;;19.30;99.90;;;;;;4891275;29;20505;-72
2022/08/19 09:03:19;;;;;;;51.57;30.53;;;19.30;99.90;;;;;;4895702;29;20478;-73
2022/08/19 09:05:56;;;;;;;50.80;29.07;;;19.30;99.90;;;;;;4897347;29;20495;-72
2022/08/19 09:08:33;;;;;;;43.73;28.20;;;19.30;99.90;;;;;;4896913;29;20975;-72
2022/08/19 09:11:05;;;;;;;46.20;28.30;;;19.30;99.90;;;;;;4895704;29;20500;-72
2022/08/19 09:13:42;;;;;;;44.87;27.13;;;19.30;99.90;;;;;;4894604;29;20579;-72
2022/08/19 09:16:15;;;;;;;44.97;27.87;;;19.30;99.90;;;;;;4896190;29;20789;-71
2022/08/19 09:18:45;;;;;;;42.70;27.83;;;19.30;99.90;;;;;;4895132;29;20475;-72
2022/08/19 09:21:13;;;;;;;38.30;25.73;;;19.30;99.90;;;;;;4896800;29;20501;-71
2022/08/19 09:23:40;;;;;;;39.20;26.60;;;19.20;99.90;;;;;;4894766;29;20465;-72
2022/08/19 09:26:09;;;;;;;37.50;25.40;;;19.30;99.90;;;;;;4896019;29;20470;-72
2022/08/19 09:28:36;;;;;;;41.70;26.40;;;19.30;99.90;;;;;;4897868;29;20991;-72
2022/08/19 09:31:03;;;;;;;38.10;24.47;;;19.30;99.90;;;;;;4897327;29;20493;-72
2022/08/19 09:33:32;;;;;;;41.97;27.37;;;19.30;99.90;;;;;;4896230;29;20497;-72
2022/08/19 09:36:07;;;;;;;37.10;24.40;;;19.40;99.90;;;;;;4894673;29;20852;-73
2022/08/19 09:38:34;;;;;;;32.97;23.67;;;19.40;99.90;;;;;;4902602;29;20480;-72
2022/08/19 09:41:05;;;;;;;35.20;24.40;;;19.40;99.90;;;;;;4901948;29;20505;-73
2022/08/19 09:43:33;;;;;;;30.77;22.90;;;19.50;99.90;;;;;;4891689;29;20482;-72
2022/08/19 09:46:00;;;;;;;31.77;22.80;;;19.50;99.90;;;;;;4890519;29;20566;-72
2022/08/19 09:48:27;;;;;;;31.83;23.50;;;19.50;99.90;;;;;;4896632;29;20998;-73
2022/08/19 09:50:55;;;;;;;32.83;22.27;;;19.50;99.90;;;;;;4895878;29;20497;-74
2022/08/19 09:53:22;;;;;;;31.80;22.57;;;19.50;99.90;;;;;;4889993;29;20490;-73
2022/08/19 09:55:50;;;;;;;31.63;22.70;;;19.60;99.90;;;;;;4896169;29;20486;-74
2022/08/19 09:58:16;;;;;;;31.27;23.20;;;19.60;99.90;;;;;;4896107;29;20475;-73
2022/08/19 10:00:43;;;;;;;32.27;22.00;;;19.70;99.90;;;;;;4896044;29;20587;-73
2022/08/19 10:03:11;;;;;;;33.77;22.53;;;19.70;99.90;;;;;;4894229;29;20498;-74
2022/08/19 10:05:50;;;;;;;35.17;24.27;;;19.70;99.90;;;;;;4896626;29;20562;-73
2022/08/19 10:08:20;;;;;;;36.10;22.70;;;19.70;99.90;;;;;;4896859;29;20849;-74
2022/08/19 10:10:48;;;;;;;33.50;23.80;;;19.70;99.90;;;;;;4894872;29;20502;-73
2022/08/19 10:13:17;;;;;;;36.93;25.77;;;19.70;99.90;;;;;;4894204;29;20482;-73
2022/08/19 10:15:44;;;;;;;34.30;25.47;;;19.70;99.90;;;;;;4895026;29;20475;-73
2022/08/19 10:18:11;;;;;;;35.37;24.33;;;19.70;99.90;;;;;;4897381;29;20530;-74
2022/08/19 10:20:38;;;;;;;37.67;25.57;;;19.70;99.90;;;;;;4895464;29;20499;-73
2022/08/19 10:23:05;;;;;;;35.73;24.10;;;19.80;99.90;;;;;;4893841;29;20482;-73
2022/08/19 10:25:34;;;;;;;37.67;25.40;;;19.80;99.90;;;;;;4896299;29;20485;-72
2022/08/19 10:28:01;;;;;;;37.50;25.50;;;19.90;99.90;;;;;;4896687;29;20479;-73
2022/08/19 10:30:28;;;;;;;39.73;26.37;;;19.90;99.90;;;;;;4895094;29;20486;-73
2022/08/19 10:32:55;;;;;;;38.43;25.53;;;19.90;99.90;;;;;;4896290;29;20823;-72
2022/08/19 10:35:22;;;;;;;41.20;27.90;;;20.00;99.90;;;;;;4893614;29;20495;-73
2022/08/19 10:37:49;;;;;;;38.27;27.23;;;20.10;99.90;;;;;;4895673;29;20486;-73
2022/08/19 10:40:16;;;;;;;43.37;27.43;;;20.20;99.90;;;;;;4893159;29;20495;-72
2022/08/19 10:42:44;;;;;;;44.93;29.23;;;20.20;99.90;;;;;;4894135;29;20480;-71
2022/08/19 10:45:11;;;;;;;40.60;28.10;;;20.30;99.90;;;;;;4892008;29;20576;-72
2022/08/19 10:47:38;;;;;;;42.37;26.80;;;20.40;99.90;;;;;;4895930;29;20493;-71
2022/08/19 10:52:51;;;;;;;36.00;26.63;;;20.40;99.90;;;;;;4890694;29;20466;-72
2022/08/19 10:58:12;;;;;;;37.33;27.23;;;20.50;99.90;;;;;;4893986;29;20470;-72
2022/08/19 11:00:40;;;;;;;42.20;27.37;;;20.50;99.90;;;;;;4895656;29;21069;-71
2022/08/19 11:03:07;;;;;;;39.90;29.07;;;20.50;99.90;;;;;;4891795;29;20583;-72
2022/08/19 11:05:34;;;;;;;43.40;29.60;;;20.50;99.90;;;;;;4896181;29;20903;-72
2022/08/19 11:08:00;;;;;;;37.20;28.93;;;20.60;99.90;;;;;;4892795;29;20482;-74
2022/08/19 11:10:27;;;;;;;39.37;26.70;;;20.60;99.90;;;;;;4894867;29;20992;-72
2022/08/19 11:12:55;;;;;;;44.27;29.87;;;20.50;99.90;;;;;;4892152;29;20472;-73
2022/08/19 11:15:24;;;;;;;40.00;27.77;;;20.50;99.90;;;;;;4896126;29;20621;-73
2022/08/19 11:17:54;;;;;;;45.83;28.97;;;20.40;99.90;;;;;;4904300;23;20514;-69
2022/08/19 11:20:21;;;;;;;46.60;28.70;;;20.50;99.90;;;;;;4893894;29;20961;-69
2022/08/19 11:22:48;;;;;;;44.80;31.50;;;20.50;99.90;;;;;;4893757;29;20499;-70
2022/08/19 11:25:14;;;;;;;44.27;30.43;;;20.60;99.90;;;;;;4894968;29;20966;-70
2022/08/19 11:27:43;;;;;;;38.93;28.83;;;20.70;99.90;;;;;;4890547;29;20496;-70
2022/08/19 11:30:11;;;;;;;37.17;28.00;;;20.70;99.90;;;;;;4892116;29;20591;-69
2022/08/19 11:32:40;;;;;;;37.67;27.60;;;20.70;99.90;;;;;;4894332;29;20471;-69
2022/08/19 11:35:07;;;;;;;38.97;26.80;;;20.90;99.90;;;;;;4893532;29;20488;-70
2022/08/19 11:37:37;;;;;;;39.30;28.03;;;20.90;99.90;;;;;;4891615;29;20493;-70
2022/08/19 11:40:04;;;;;;;41.90;29.70;;;21.10;99.90;;;;;;4893847;29;20510;-69
2022/08/19 11:45:15;;;;;;;36.53;27.17;;;21.10;99.90;;;;;;4891119;29;20463;-70
2022/08/19 11:47:43;;;;;;;41.20;29.80;;;21.10;99.90;;;;;;4890272;29;20575;-70
2022/08/19 11:50:10;;;;;;;40.53;30.20;;;21.20;99.90;;;;;;4893760;29;20558;-70
2022/08/19 11:52:37;;;;;;;40.50;30.40;;;21.30;99.90;;;;;;4890966;29;20532;-69
2022/08/19 11:55:05;;;;;;;45.03;31.57;;;21.30;99.90;;;;;;4892654;29;20521;-69
2022/08/19 11:57:32;;;;;;;42.63;30.97;;;21.20;99.90;;;;;;4887087;29;20515;-69
2022/08/19 11:59:59;;;;;;;57.47;33.47;;;21.20;99.90;;;;;;4893777;29;20480;-69
2022/08/19 12:02:25;;;;;;;52.10;33.93;;;21.20;99.90;;;;;;4892291;29;20573;-69
2022/08/19 12:04:53;;;;;;;45.00;33.30;;;21.30;99.90;;;;;;4894576;29;20472;-70
2022/08/19 12:07:20;;;;;;;40.57;32.53;;;21.30;99.90;;;;;;4891721;29;20518;-69
2022/08/19 12:09:47;;;;;;;41.87;32.13;;;21.40;99.90;;;;;;4890755;29;20469;-69
2022/08/19 12:12:13;;;;;;;39.83;31.10;;;21.50;99.90;;;;;;4892327;29;20480;-69
2022/08/19 12:14:40;;;;;;;37.97;31.33;;;21.50;99.90;;;;;;4891972;29;20489;-69
2022/08/19 12:17:08;;;;;;;40.30;30.60;;;21.40;99.90;;;;;;4892299;29;20977;-70
2022/08/19 12:19:37;;;;;;;43.23;32.50;;;21.30;99.90;;;;;;4886957;29;20934;-69
2022/08/19 12:22:07;;;;;;;36.67;30.47;;;21.30;99.90;;;;;;4891609;29;20941;-69
2022/08/19 12:24:34;;;;;;;39.60;31.23;;;21.50;99.90;;;;;;4892506;29;20527;-70
2022/08/19 12:27:01;;;;;;;35.73;30.67;;;21.60;99.90;;;;;;4889899;29;20492;-69
2022/08/19 12:29:29;;;;;;;40.27;31.20;;;21.60;99.90;;;;;;4893353;29;20461;-70
2022/08/19 12:32:00;;;;;;;38.17;31.93;;;21.70;99.90;;;;;;4895770;29;20547;-70
2022/08/19 12:34:29;;;;;;;42.83;32.70;;;21.60;99.90;;;;;;4894046;29;21084;-69
2022/08/19 12:36:56;;;;;;;36.97;32.30;;;21.60;99.90;;;;;;4894162;29;20505;-69
2022/08/19 12:39:24;;;;;;;36.20;30.40;;;21.70;99.90;;;;;;4892031;29;20473;-69
2022/08/19 12:41:52;;;;;;;39.73;30.60;;;21.80;99.90;;;;;;4894037;29;20572;-69
2022/08/19 12:44:20;;;;;;;35.33;30.43;;;21.80;99.90;;;;;;4892878;29;20995;-69
2022/08/19 12:46:48;;;;;;;34.83;30.77;;;21.90;99.90;;;;;;4896332;29;20532;-70
2022/08/19 12:49:16;;;;;;;39.57;33.47;;;22.00;99.90;;;;;;4897125;29;20473;-70
2022/08/19 12:51:43;;;;;;;40.70;33.60;;;21.90;99.90;;;;;;4896742;29;20473;-70
2022/08/19 12:54:10;;;;;;;39.67;33.30;;;21.90;99.90;;;;;;4893251;29;20573;-69
2022/08/19 12:56:38;;;;;;;39.27;34.30;;;21.90;99.90;;;;;;4895779;29;20504;-68
2022/08/19 12:59:07;;;;;;;39.90;32.70;;;21.90;99.90;;;;;;4893064;29;20479;-70
2022/08/19 13:01:34;;;;;;;38.00;32.33;;;21.90;99.90;;;;;;4896975;29;20509;-68
2022/08/19 13:04:01;;;;;;;35.23;30.90;;;21.90;99.90;;;;;;4894696;29;20478;-70
2022/08/19 13:06:27;;;;;;;34.83;29.80;;;22.00;99.90;;;;;;4892177;29;20490;-68
2022/08/19 13:08:55;;;;;;;35.10;31.33;;;22.10;99.90;;;;;;4894574;29;20494;-69
2022/08/19 13:11:24;;;;;;;30.17;26.97;;;22.10;99.90;;;;;;4894806;29;20478;-68
2022/08/19 13:13:54;;;;;;;32.43;28.50;;;22.30;99.90;;;;;;4894930;29;20505;-68
2022/08/19 13:16:21;;;;;;;33.43;27.60;;;22.60;99.90;;;;;;4890492;29;20493;-69
2022/08/19 13:18:51;;;;;;;31.67;28.47;;;22.60;99.90;;;;;;4895032;29;20556;-68
2022/08/19 13:21:20;;;;;;;32.50;28.60;;;22.60;99.90;;;;;;4894515;29;21172;-68
2022/08/19 13:23:47;;;;;;;29.90;26.90;;;22.70;99.90;;;;;;4896846;29;20744;-69
2022/08/19 13:26:14;;;;;;;32.50;29.10;;;22.80;99.90;;;;;;4894227;29;20877;-68
2022/08/19 13:34:16;;;;;;;31.77;28.33;;;22.80;99.90;;;;;;4894292;29;20809;-69
2022/08/19 13:36:43;;;;;;;32.10;28.13;;;22.80;99.90;;;;;;4890945;29;20493;-69
2022/08/19 13:39:11;;;;;;;31.17;27.90;;;22.90;99.90;;;;;;4895712;29;20492;-69
2022/08/19 13:41:38;;;;;;;29.63;26.70;;;22.90;99.90;;;;;;4893696;29;20485;-69
2022/08/19 13:44:06;;;;;;;29.57;26.63;;;23.00;99.90;;;;;;4892307;29;20474;-69
2022/08/19 13:46:35;;;;;;;30.47;27.40;;;23.10;99.90;;;;;;4894869;29;20506;-68
2022/08/19 13:49:01;;;;;;;27.97;25.37;;;23.10;99.90;;;;;;4894926;29;20474;-69
2022/08/19 13:51:28;;;;;;;28.80;25.93;;;23.10;99.90;;;;;;4895977;29;20487;-69
2022/08/19 13:53:55;;;;;;;28.30;25.47;;;23.20;99.90;;;;;;4904515;29;20474;-68
2022/08/19 13:56:22;;;;;;;27.53;24.73;;;23.30;99.90;;;;;;4899995;29;20501;-69
2022/08/19 13:58:48;;;;;;;27.30;24.60;;;23.40;99.90;;;;;;4898285;29;20483;-68
2022/08/19 14:01:21;;;;;;;28.57;25.37;;;23.60;99.90;;;;;;4890704;29;20480;-69
2022/08/19 14:03:49;;;;;;;26.73;24.13;;;23.70;99.90;;;;;;4889732;29;20478;-69
2022/08/19 14:06:16;;;;;;;26.00;23.57;;;23.80;99.90;;;;;;4893670;29;20471;-69
2022/08/19 14:08:43;;;;;;;27.37;24.57;;;23.90;99.90;;;;;;4896657;29;20476;-69
2022/08/19 14:11:11;;;;;;;26.67;23.97;;;24.00;99.90;;;;;;4891601;29;20480;-70
2022/08/19 14:13:37;;;;;;;26.60;23.73;;;23.90;99.90;;;;;;4892863;29;20479;-69
2022/08/19 14:16:09;;;;;;;26.47;23.73;;;23.90;99.90;;;;;;4893379;29;20495;-70
2022/08/19 14:18:36;;;;;;;27.30;24.60;;;23.70;99.90;;;;;;4895936;29;20484;-70
2022/08/19 14:21:04;;;;;;;26.37;23.87;;;23.70;99.90;;;;;;4894951;29;20479;-69
2022/08/19 14:23:31;;;;;;;27.23;24.60;;;23.60;99.90;;;;;;4896682;29;20525;-69
2022/08/19 14:26:04;;;;;;;25.60;22.90;;;23.60;99.90;;;;;;4894685;29;20933;-69
2022/08/19 14:28:31;;;;;;;26.07;23.37;;;23.60;99.90;;;;;;4897170;29;20478;-69
2022/08/19 14:30:58;;;;;;;24.70;22.10;;;23.60;99.90;;;;;;4894797;29;20482;-69
2022/08/19 14:33:24;;;;;;;23.63;21.53;;;23.60;99.90;;;;;;4896827;29;20471;-69
2022/08/19 14:35:51;;;;;;;25.53;23.00;;;23.60;99.90;;;;;;4894814;29;20561;-69
2022/08/19 14:38:20;;;;;;;25.63;23.03;;;23.70;99.90;;;;;;4896339;29;20499;-69
2022/08/19 14:40:48;;;;;;;24.37;22.17;;;23.70;99.90;;;;;;4895688;29;20487;-70
2022/08/19 14:43:17;;;;;;;24.30;22.13;;;23.70;99.90;;;;;;4895222;29;20956;-69
2022/08/19 14:45:44;;;;;;;24.10;21.77;;;23.80;99.90;;;;;;4893270;29;20470;-69
2022/08/19 14:48:12;;;;;;;23.70;21.50;;;23.90;99.90;;;;;;4896160;29;20506;-69
2022/08/19 14:50:39;;;;;;;24.50;22.00;;;24.00;99.90;;;;;;4892637;29;20475;-69
2022/08/19 14:53:09;;;;;;;23.70;21.50;;;23.90;99.90;;;;;;4893931;29;20482;-69
2022/08/19 14:55:37;;;;;;;27.13;24.50;;;23.90;99.90;;;;;;4895439;29;20569;-69
2022/08/19 14:58:04;;;;;;;25.80;23.37;;;23.80;99.90;;;;;;4895370;29;20898;-69
2022/08/19 15:00:31;;;;;;;26.43;23.83;;;23.80;99.90;;;;;;4895654;29;20557;-69
2022/08/19 15:02:58;;;;;;;28.03;25.47;;;23.80;99.90;;;;;;4894049;29;20801;-69
2022/08/19 15:05:26;;;;;;;25.90;23.40;;;23.70;99.90;;;;;;4895723;29;20502;-69
2022/08/19 15:07:56;;;;;;;26.80;24.30;;;23.70;99.90;;;;;;4895007;29;20585;-69
2022/08/19 15:10:24;;;;;;;27.43;24.67;;;23.60;99.90;;;;;;4893586;29;20584;-69
2022/08/19 15:12:53;;;;;;;25.40;22.97;;;23.70;99.90;;;;;;4895155;29;20538;-69
2022/08/19 15:15:20;;;;;;;28.47;25.57;;;23.70;99.90;;;;;;4894526;29;20494;-69
2022/08/19 15:17:47;;;;;;;28.20;25.50;;;23.80;99.90;;;;;;4895738;29;20502;-69
2022/08/19 15:20:17;;;;;;;26.87;23.97;;;23.70;99.90;;;;;;4895135;29;20478;-69
2022/08/19 15:22:44;;;;;;;27.43;24.80;;;23.70;99.90;;;;;;4877127;29;20466;-69
2022/08/19 15:25:14;;;;;;;23.47;21.13;;;23.70;99.90;;;;;;4892513;29;20484;-69
2022/08/19 15:27:40;;;;;;;25.03;22.23;;;23.70;99.90;;;;;;4895838;29;20486;-69
2022/08/19 15:30:11;;;;;;;24.13;21.77;;;23.70;99.90;;;;;;4892630;29;20474;-68
2022/08/19 15:32:39;;;;;;;24.83;22.53;;;23.80;99.90;;;;;;4894734;29;20485;-68
2022/08/19 15:35:07;;;;;;;25.37;22.97;;;23.90;99.90;;;;;;4894516;29;21010;-69
2022/08/19 15:37:34;;;;;;;23.67;21.47;;;23.80;99.90;;;;;;4895255;29;20983;-69
2022/08/19 15:40:01;;;;;;;24.60;22.30;;;23.80;99.90;;;;;;4893884;29;20986;-69
2022/08/19 15:42:27;;;;;;;24.50;22.20;;;23.80;99.90;;;;;;4894011;29;20484;-69
2022/08/19 15:44:55;;;;;;;22.87;20.70;;;23.80;99.90;;;;;;4893657;29;20485;-69
2022/08/19 15:47:23;;;;;;;24.77;22.37;;;23.90;99.90;;;;;;4895317;29;20493;-69
2022/08/19 15:49:50;;;;;;;24.90;22.50;;;23.80;99.90;;;;;;4893570;29;20485;-69
2022/08/19 15:52:20;;;;;;;23.87;21.57;;;23.80;99.90;;;;;;4895205;29;20473;-69
2022/08/19 15:54:47;;;;;;;22.73;20.77;;;23.90;99.90;;;;;;4892902;29;20947;-69
2022/08/19 16:08:12;;;;;;;24.43;22.33;;;23.70;99.90;;;;;;4895152;29;20983;-70
2022/08/19 16:10:39;;;;;;;24.70;22.37;;;23.60;99.90;;;;;;4893001;29;20478;-70
2022/08/19 16:13:06;;;;;;;23.47;21.53;;;23.70;99.90;;;;;;4895253;29;20960;-70
2022/08/19 16:15:33;;;;;;;23.07;21.17;;;23.70;99.90;;;;;;4893779;29;20505;-70
2022/08/19 16:18:03;;;;;;;21.80;19.90;;;23.70;99.90;;;;;;4895108;29;20493;-70
2022/08/19 16:20:30;;;;;;;22.90;20.90;;;23.70;99.90;;;;;;4892913;29;21250;-70
2022/08/19 16:22:58;;;;;;;22.03;20.23;;;23.70;99.90;;;;;;4899467;29;20565;-70
2022/08/19 16:25:28;;;;;;;21.97;19.87;;;23.70;99.90;;;;;;4910321;29;20485;-69
2022/08/19 16:27:55;;;;;;;22.53;20.57;;;23.80;99.90;;;;;;4909659;29;20504;-71
2022/08/19 16:30:22;;;;;;;20.23;18.23;;;23.70;99.90;;;;;;4907065;29;20481;-71
2022/08/19 16:32:49;;;;;;;20.93;19.23;;;23.70;99.90;;;;;;4895886;29;20469;-69
2022/08/19 16:35:17;;;;;;;19.57;17.80;;;23.70;99.90;;;;;;4895701;29;20502;-70
2022/08/19 16:37:44;;;;;;;18.43;17.03;;;23.70;99.90;;;;;;4898372;29;20489;-70
2022/08/19 16:40:12;;;;;;;17.60;16.00;;;23.80;99.90;;;;;;4892820;29;20485;-69
2022/08/19 16:42:38;;;;;;;17.53;16.13;;;23.90;99.90;;;;;;4897548;29;20559;-70
2022/08/19 16:45:07;;;;;;;17.57;15.93;;;23.80;99.90;;;;;;4897239;29;20482;-69
2022/08/19 16:47:35;;;;;;;16.80;15.43;;;23.80;99.90;;;;;;4898220;29;20565;-70
2022/08/19 16:50:01;;;;;;;15.10;14.00;;;23.70;99.90;;;;;;4897022;29;20485;-69
2022/08/19 16:52:30;;;;;;;16.87;15.57;;;23.60;99.90;;;;;;4898799;29;20472;-69
2022/08/19 16:54:57;;;;;;;14.57;13.37;;;23.60;99.90;;;;;;4897074;29;20482;-70
2022/08/19 16:57:24;;;;;;;14.57;13.37;;;23.50;99.90;;;;;;4898253;29;20492;-69
2022/08/19 16:59:51;;;;;;;14.53;13.33;;;23.60;99.90;;;;;;4893965;29;20549;-69
2022/08/19 17:02:20;;;;;;;15.00;13.53;;;23.50;99.90;;;;;;4898235;29;20461;-69
2022/08/19 17:04:48;;;;;;;13.90;12.80;;;23.50;99.90;;;;;;4893258;29;20552;-69
2022/08/19 17:07:15;;;;;;;13.33;12.33;;;23.50;99.90;;;;;;4898076;29;20560;-69
2022/08/19 17:09:43;;;;;;;12.90;11.80;;;23.40;99.90;;;;;;4896820;29;20492;-69
2022/08/19 17:12:10;;;;;;;13.07;12.10;;;23.40;99.90;;;;;;4897159;29;21006;-69
2022/08/19 17:14:37;;;;;;;12.73;11.83;;;23.40;99.90;;;;;;4897418;29;20938;-69